PWSweather.com
Personal Weather Stations
Station Observations
JOE4SPEED
Jupiter, Fl, Jupiter, FL 33458

Jupiter, FlJupiter, FL 33458

Lat: 26.9373, Lon: -80.1101

Elevation: 12

Station Type: Davis VP 2

http://www.joe4speed.com/wxindex.php

Latest ConditionsUpdated 7:20:00 PM EDT Monday, Aug 29, 2016
Currently Today's Max Today's Min Today's Average
Temperature 81.5°F27.5°C 88.4°F31.3°C 76.9°F24.9°C 82.1°F27.8°C
Dew Point 74.3°F23.5°C 79.4°F26.3°C 73.9°F23.3°C 75.8°F24.3°C
Winds 5.8 mph SE9.3 kmh SE 12.7 mph SE20.4 kmh SE - 4.2 mph 6.8 kmh
Wind Gusts 8.1 mph13.0 kmh 18.4 mph29.6 kmh - -
Humidity 79% 91% 70% 82%
Pressure 29.90 in1012.5 mb 29.95 in1014.2 mb 29.88 in1011.9 mb -
Precipitation - 0.02 in0.5 mm - -
Hour Temp Dew Point Humidity Winds Wind Gusts Pressure Precip Precip Rate Daily Precip Total
07:20 PM 81.5°F27.5°C 74.3°F23.5°C 79% 5.8 mph SE9.3 kmh SE 8.1 mph13.0 kmh 29.90 in1012.5 mb - 0.00 in0.0 mm 0.02 in0.5 mm
07:10 PM 81.6°F27.6°C 74.8°F23.8°C 80% 4.6 mph SE7.4 kmh SE 10.4 mph16.7 kmh 29.89 in1012.2 mb - 0.00 in0.0 mm 0.02 in0.5 mm
07:00 PM 81.7°F27.6°C 74.5°F23.6°C 79% 5.8 mph SSE9.3 kmh SSE 9.2 mph14.8 kmh 29.89 in1012.2 mb - 0.00 in0.0 mm 0.02 in0.5 mm
06:50 PM 82.0°F27.8°C 75.2°F24.0°C 80% 4.6 mph SE7.4 kmh SE 4.6 mph7.4 kmh 29.89 in1012.2 mb - 0.00 in0.0 mm 0.02 in0.5 mm
06:40 PM 82.1°F27.8°C 74.9°F23.8°C 79% 3.5 mph SE5.6 kmh SE 5.8 mph9.3 kmh 29.89 in1012.2 mb - 0.00 in0.0 mm 0.02 in0.5 mm
06:30 PM 82.1°F27.8°C 75.3°F24.1°C 80% 6.9 mph SE11.1 kmh SE 10.4 mph16.7 kmh 29.89 in1012.2 mb - 0.00 in0.0 mm 0.02 in0.5 mm
06:20 PM 82.1°F27.8°C 74.6°F23.7°C 78% 6.9 mph SE11.1 kmh SE 11.5 mph18.5 kmh 29.89 in1012.2 mb - 0.00 in0.0 mm 0.02 in0.5 mm
06:10 PM 82.2°F27.9°C 75.1°F23.9°C 79% 5.8 mph SE9.3 kmh SE 8.1 mph13.0 kmh 29.89 in1012.2 mb - 0.00 in0.0 mm 0.02 in0.5 mm
06:00 PM 82.2°F27.9°C 74.7°F23.7°C 78% 6.9 mph SE11.1 kmh SE 11.5 mph18.5 kmh 29.89 in1012.2 mb - 0.00 in0.0 mm 0.02 in0.5 mm
05:50 PM 82.4°F28.0°C 74.8°F23.8°C 78% 5.8 mph SE9.3 kmh SE 11.5 mph18.5 kmh 29.89 in1012.2 mb - 0.00 in0.0 mm 0.02 in0.5 mm
05:40 PM 82.6°F28.1°C 75.4°F24.1°C 79% 6.9 mph SE11.1 kmh SE 10.4 mph16.7 kmh 29.89 in1012.2 mb - 0.00 in0.0 mm 0.02 in0.5 mm
05:30 PM 82.9°F28.3°C 76.1°F24.5°C 80% 4.6 mph SE7.4 kmh SE 8.1 mph13.0 kmh 29.89 in1012.2 mb - 0.00 in0.0 mm 0.02 in0.5 mm
05:20 PM 83.0°F28.3°C 76.2°F24.6°C 80% 5.8 mph SE9.3 kmh SE 11.5 mph18.5 kmh 29.89 in1012.2 mb - 0.00 in0.0 mm 0.02 in0.5 mm
05:10 PM 83.2°F28.4°C 76.4°F24.7°C 80% 5.8 mph E9.3 kmh E 9.2 mph14.8 kmh 29.89 in1012.2 mb - 0.00 in0.0 mm 0.02 in0.5 mm
05:00 PM 83.4°F28.6°C 76.2°F24.6°C 79% 8.1 mph SE13.0 kmh SE 11.5 mph18.5 kmh 29.90 in1012.5 mb - 0.00 in0.0 mm 0.02 in0.5 mm
04:50 PM 83.5°F28.6°C 76.0°F24.4°C 78% 6.9 mph SE11.1 kmh SE 11.5 mph18.5 kmh 29.89 in1012.2 mb - 0.00 in0.0 mm 0.02 in0.5 mm
04:40 PM 83.4°F28.6°C 75.4°F24.1°C 77% 6.9 mph SE11.1 kmh SE 10.4 mph16.7 kmh 29.89 in1012.2 mb - 0.00 in0.0 mm 0.02 in0.5 mm
04:30 PM 83.2°F28.4°C 75.6°F24.2°C 78% 4.6 mph SE7.4 kmh SE 6.9 mph11.1 kmh 29.89 in1012.2 mb - 0.00 in0.0 mm 0.02 in0.5 mm
04:20 PM 83.2°F28.4°C 75.6°F24.2°C 78% 9.2 mph SE14.8 kmh SE 12.7 mph20.4 kmh 29.89 in1012.2 mb - 0.00 in0.0 mm 0.02 in0.5 mm
04:10 PM 83.4°F28.6°C 76.2°F24.6°C 79% 9.2 mph SE14.8 kmh SE 11.5 mph18.5 kmh 29.89 in1012.2 mb - 0.00 in0.0 mm 0.02 in0.5 mm
04:00 PM 83.6°F28.7°C 76.3°F24.6°C 79% 6.9 mph SE11.1 kmh SE 11.5 mph18.5 kmh 29.90 in1012.5 mb - 0.00 in0.0 mm 0.02 in0.5 mm
03:50 PM 83.7°F28.7°C 76.5°F24.7°C 79% 6.9 mph ESE11.1 kmh ESE 16.1 mph25.9 kmh 29.90 in1012.5 mb - 0.00 in0.0 mm 0.02 in0.5 mm
03:40 PM 83.7°F28.7°C 76.9°F24.9°C 80% 8.1 mph ESE13.0 kmh ESE 11.5 mph18.5 kmh 29.89 in1012.2 mb - 0.00 in0.0 mm 0.02 in0.5 mm
03:30 PM 83.3°F28.5°C 76.1°F24.5°C 79% 5.8 mph SE9.3 kmh SE 9.2 mph14.8 kmh 29.89 in1012.2 mb - 0.00 in0.0 mm 0.02 in0.5 mm
03:20 PM 82.8°F28.2°C 76.0°F24.4°C 80% 5.8 mph SE9.3 kmh SE 10.4 mph16.7 kmh 29.89 in1012.2 mb - 0.00 in0.0 mm 0.02 in0.5 mm
03:10 PM 82.4°F28.0°C 75.2°F24.0°C 79% 5.8 mph SE9.3 kmh SE 8.1 mph13.0 kmh 29.89 in1012.2 mb - 0.00 in0.0 mm 0.02 in0.5 mm
03:00 PM 81.8°F27.7°C 74.3°F23.5°C 78% 5.8 mph SE9.3 kmh SE 11.5 mph18.5 kmh 29.90 in1012.5 mb - 0.00 in0.0 mm 0.02 in0.5 mm
02:50 PM 81.4°F27.4°C 74.2°F23.4°C 79% 5.8 mph SE9.3 kmh SE 13.8 mph22.2 kmh 29.90 in1012.5 mb - 0.00 in0.0 mm 0.02 in0.5 mm
02:40 PM 82.1°F27.8°C 75.4°F24.1°C 80% 10.4 mph SE16.7 kmh SE 13.8 mph22.2 kmh 29.91 in1012.9 mb - 0.00 in0.0 mm 0.02 in0.5 mm
02:30 PM 84.6°F29.2°C 76.2°F24.6°C 76% 12.7 mph SE20.4 kmh SE 18.4 mph29.6 kmh 29.92 in1013.2 mb - 0.00 in0.0 mm 0.02 in0.5 mm
02:20 PM 85.5°F29.7°C 76.7°F24.8°C 75% 9.2 mph SE14.8 kmh SE 11.5 mph18.5 kmh 29.92 in1013.2 mb - 0.00 in0.0 mm 0.02 in0.5 mm
02:10 PM 86.2°F30.1°C 77.3°F25.2°C 75% 6.9 mph ESE11.1 kmh ESE 17.3 mph27.8 kmh 29.92 in1013.2 mb - 0.00 in0.0 mm 0.02 in0.5 mm
02:00 PM 87.1°F30.6°C 77.8°F25.4°C 74% 9.2 mph SE14.8 kmh SE 12.7 mph20.4 kmh 29.92 in1013.2 mb - 0.00 in0.0 mm 0.02 in0.5 mm
01:50 PM 87.8°F31.0°C 78.1°F25.6°C 73% 8.1 mph E13.0 kmh E 13.8 mph22.2 kmh 29.93 in1013.5 mb - 0.00 in0.0 mm 0.02 in0.5 mm
01:40 PM 87.2°F30.7°C 78.3°F25.7°C 75% 8.1 mph ESE13.0 kmh ESE 11.5 mph18.5 kmh 29.93 in1013.5 mb - 0.00 in0.0 mm 0.02 in0.5 mm
01:30 PM 86.3°F30.2°C 77.9°F25.5°C 76% 4.6 mph ESE7.4 kmh ESE 9.2 mph14.8 kmh 29.93 in1013.5 mb - 0.00 in0.0 mm 0.02 in0.5 mm
01:20 PM 86.5°F30.3°C 77.3°F25.2°C 74% 6.9 mph ESE11.1 kmh ESE 10.4 mph16.7 kmh 29.93 in1013.5 mb - 0.00 in0.0 mm 0.02 in0.5 mm
01:10 PM 86.8°F30.4°C 77.1°F25.1°C 73% 6.9 mph E11.1 kmh E 11.5 mph18.5 kmh 29.93 in1013.5 mb - 0.00 in0.0 mm 0.02 in0.5 mm
01:00 PM 86.6°F30.3°C 77.3°F25.2°C 74% 5.8 mph E9.3 kmh E 9.2 mph14.8 kmh 29.93 in1013.5 mb - 0.00 in0.0 mm 0.02 in0.5 mm
12:50 PM 86.8°F30.4°C 77.5°F25.3°C 74% 6.9 mph ESE11.1 kmh ESE 8.1 mph13.0 kmh 29.93 in1013.5 mb - 0.00 in0.0 mm 0.02 in0.5 mm
12:40 PM 87.1°F30.6°C 77.8°F25.4°C 74% 8.1 mph ESE13.0 kmh ESE 13.8 mph22.2 kmh 29.94 in1013.9 mb - 0.00 in0.0 mm 0.02 in0.5 mm
12:30 PM 88.4°F31.3°C 78.6°F25.9°C 73% 6.9 mph ESE11.1 kmh ESE 11.5 mph18.5 kmh 29.94 in1013.9 mb - 0.00 in0.0 mm 0.02 in0.5 mm
12:20 PM 88.3°F31.3°C 79.4°F26.3°C 75% 4.6 mph E7.4 kmh E 6.9 mph11.1 kmh 29.94 in1013.9 mb - 0.00 in0.0 mm 0.02 in0.5 mm
12:10 PM 88.3°F31.3°C 78.2°F25.7°C 72% 8.1 mph E13.0 kmh E 11.5 mph18.5 kmh 29.94 in1013.9 mb - 0.00 in0.0 mm 0.02 in0.5 mm
12:00 PM 87.7°F30.9°C 77.9°F25.5°C 73% 3.5 mph SE5.6 kmh SE 4.6 mph7.4 kmh 29.93 in1013.5 mb - 0.00 in0.0 mm 0.02 in0.5 mm
11:50 AM 85.7°F29.8°C 76.5°F24.7°C 74% 4.6 mph SE7.4 kmh SE 6.9 mph11.1 kmh 29.93 in1013.5 mb - 0.00 in0.0 mm 0.02 in0.5 mm
11:40 AM 85.9°F29.9°C 75.0°F23.9°C 70% 5.8 mph SE9.3 kmh SE 11.5 mph18.5 kmh 29.93 in1013.5 mb - 0.00 in0.0 mm 0.02 in0.5 mm
11:30 AM 86.5°F30.3°C 76.0°F24.4°C 71% 5.8 mph ESE9.3 kmh ESE 8.1 mph13.0 kmh 29.94 in1013.9 mb - 0.00 in0.0 mm 0.02 in0.5 mm
11:20 AM 86.5°F30.3°C 75.5°F24.2°C 70% 6.9 mph ESE11.1 kmh ESE 10.4 mph16.7 kmh 29.94 in1013.9 mb - 0.00 in0.0 mm 0.02 in0.5 mm
11:10 AM 86.5°F30.3°C 78.1°F25.6°C 76% 5.8 mph SE9.3 kmh SE 11.5 mph18.5 kmh 29.94 in1013.9 mb - 0.00 in0.0 mm 0.02 in0.5 mm
11:00 AM 86.3°F30.2°C 77.9°F25.5°C 76% 5.8 mph SE9.3 kmh SE 11.5 mph18.5 kmh 29.94 in1013.9 mb - 0.00 in0.0 mm 0.02 in0.5 mm
10:50 AM 86.4°F30.2°C 78.3°F25.7°C 77% 6.9 mph SE11.1 kmh SE 12.7 mph20.4 kmh 29.95 in1014.2 mb - 0.00 in0.0 mm 0.02 in0.5 mm
10:40 AM 86.1°F30.1°C 77.2°F25.1°C 75% 6.9 mph SSE11.1 kmh SSE 8.1 mph13.0 kmh 29.95 in1014.2 mb - 0.00 in0.0 mm 0.02 in0.5 mm
10:30 AM 85.6°F29.8°C 77.2°F25.1°C 76% 9.2 mph ESE14.8 kmh ESE 12.7 mph20.4 kmh 29.94 in1013.9 mb - 0.00 in0.0 mm 0.02 in0.5 mm
10:20 AM 85.0°F29.4°C 77.3°F25.2°C 78% 6.9 mph SE11.1 kmh SE 9.2 mph14.8 kmh 29.94 in1013.9 mb - 0.00 in0.0 mm 0.02 in0.5 mm
10:10 AM 84.5°F29.2°C 76.9°F24.9°C 78% 8.1 mph ESE13.0 kmh ESE 11.5 mph18.5 kmh 29.94 in1013.9 mb - 0.00 in0.0 mm 0.02 in0.5 mm
10:00 AM 83.5°F28.6°C 77.0°F25.0°C 81% 5.8 mph ESE9.3 kmh ESE 9.2 mph14.8 kmh 29.94 in1013.9 mb - 0.00 in0.0 mm 0.02 in0.5 mm
09:50 AM 83.2°F28.4°C 76.8°F24.9°C 81% 8.1 mph ESE13.0 kmh ESE 10.4 mph16.7 kmh 29.94 in1013.9 mb - 0.00 in0.0 mm 0.02 in0.5 mm
09:40 AM 83.2°F28.4°C 77.1°F25.1°C 82% 5.8 mph SE9.3 kmh SE 9.2 mph14.8 kmh 29.94 in1013.9 mb - 0.00 in0.0 mm 0.02 in0.5 mm
09:30 AM 82.6°F28.1°C 77.3°F25.2°C 84% 5.8 mph ESE9.3 kmh ESE 8.1 mph13.0 kmh 29.93 in1013.5 mb - 0.00 in0.0 mm 0.02 in0.5 mm
09:20 AM 82.0°F27.8°C 77.4°F25.2°C 86% 6.9 mph ESE11.1 kmh ESE 11.5 mph18.5 kmh 29.93 in1013.5 mb - 0.00 in0.0 mm 0.02 in0.5 mm
09:10 AM 81.3°F27.4°C 77.7°F25.4°C 89% 6.9 mph SE11.1 kmh SE 8.1 mph13.0 kmh 29.93 in1013.5 mb - 0.00 in0.0 mm 0.02 in0.5 mm
09:00 AM 79.9°F26.6°C 77.1°F25.1°C 91% 4.6 mph ESE7.4 kmh ESE 8.1 mph13.0 kmh 29.93 in1013.5 mb - 0.00 in0.0 mm 0.02 in0.5 mm
08:50 AM 78.7°F25.9°C 75.9°F24.4°C 91% Calm Calm -- 29.92 in1013.2 mb - 0.00 in0.0 mm 0.02 in0.5 mm
08:40 AM 78.1°F25.6°C 75.2°F24.0°C 91% Calm Calm -- 29.92 in1013.2 mb - 0.00 in0.0 mm 0.02 in0.5 mm
08:30 AM 77.7°F25.4°C 74.9°F23.8°C 91% Calm Calm -- 29.92 in1013.2 mb - 0.00 in0.0 mm 0.02 in0.5 mm
08:20 AM 77.4°F25.2°C 74.6°F23.7°C 91% Calm Calm -- 29.92 in1013.2 mb - 0.00 in0.0 mm 0.02 in0.5 mm
08:10 AM 77.1°F25.1°C 74.3°F23.5°C 91% Calm Calm -- 29.92 in1013.2 mb - 0.00 in0.0 mm 0.02 in0.5 mm
08:00 AM 76.9°F24.9°C 74.1°F23.4°C 91% Calm Calm -- 29.92 in1013.2 mb - 0.01 in0.3 mm 0.02 in0.5 mm
07:50 AM 77.1°F25.1°C 74.3°F23.5°C 91% 2.3 mph NNE3.7 kmh NNE 3.5 mph5.6 kmh 29.91 in1012.9 mb - 0.00 in0.0 mm 0.01 in0.3 mm
07:40 AM 77.9°F25.5°C 75.0°F23.9°C 91% Calm Calm -- 29.92 in1013.2 mb - 0.00 in0.0 mm 0.01 in0.3 mm
07:30 AM 77.5°F25.3°C 74.7°F23.7°C 91% Calm Calm -- 29.92 in1013.2 mb - 0.00 in0.0 mm 0.01 in0.3 mm
07:20 AM 77.5°F25.3°C 74.7°F23.7°C 91% Calm Calm -- 29.91 in1012.9 mb - 0.00 in0.0 mm 0.01 in0.3 mm
07:10 AM 77.6°F25.3°C 74.8°F23.8°C 91% Calm Calm -- 29.91 in1012.9 mb - 0.00 in0.0 mm 0.01 in0.3 mm
07:00 AM 77.5°F25.3°C 74.7°F23.7°C 91% Calm Calm -- 29.91 in1012.9 mb - 0.00 in0.0 mm 0.01 in0.3 mm
06:50 AM 77.4°F25.2°C 74.2°F23.4°C 90% Calm Calm -- 29.91 in1012.9 mb - 0.00 in0.0 mm 0.01 in0.3 mm
06:40 AM 77.5°F25.3°C 74.3°F23.5°C 90% Calm Calm -- 29.91 in1012.9 mb - 0.00 in0.0 mm 0.01 in0.3 mm
06:30 AM 77.5°F25.3°C 74.3°F23.5°C 90% Calm Calm -- 29.90 in1012.5 mb - 0.00 in0.0 mm 0.01 in0.3 mm
06:20 AM 77.5°F25.3°C 74.3°F23.5°C 90% Calm Calm -- 29.89 in1012.2 mb - 0.00 in0.0 mm 0.01 in0.3 mm
06:10 AM 77.7°F25.4°C 74.5°F23.6°C 90% Calm Calm -- 29.88 in1011.9 mb - 0.00 in0.0 mm 0.01 in0.3 mm
06:00 AM 77.7°F25.4°C 74.6°F23.7°C 90% Calm Calm -- 29.88 in1011.9 mb - 0.00 in0.0 mm 0.01 in0.3 mm
05:50 AM 77.9°F25.5°C 74.8°F23.8°C 90% Calm Calm -- 29.88 in1011.9 mb - 0.00 in0.0 mm 0.01 in0.3 mm
05:40 AM 78.1°F25.6°C 74.6°F23.7°C 89% Calm Calm -- 29.89 in1012.2 mb - 0.00 in0.0 mm 0.01 in0.3 mm
05:30 AM 78.2°F25.7°C 74.7°F23.7°C 89% Calm Calm -- 29.89 in1012.2 mb - 0.00 in0.0 mm 0.01 in0.3 mm
05:20 AM 78.3°F25.7°C 74.8°F23.8°C 89% Calm Calm -- 29.89 in1012.2 mb - 0.00 in0.0 mm 0.01 in0.3 mm
05:10 AM 78.2°F25.7°C 74.7°F23.7°C 89% Calm Calm -- 29.89 in1012.2 mb - 0.00 in0.0 mm 0.01 in0.3 mm
05:00 AM 78.2°F25.7°C 74.7°F23.7°C 89% Calm Calm -- 29.89 in1012.2 mb - 0.00 in0.0 mm 0.01 in0.3 mm
04:50 AM 78.3°F25.7°C 74.5°F23.6°C 88% Calm Calm -- 29.89 in1012.2 mb - 0.00 in0.0 mm 0.01 in0.3 mm
04:40 AM 78.3°F25.7°C 74.5°F23.6°C 88% Calm Calm -- 29.89 in1012.2 mb - 0.00 in0.0 mm 0.01 in0.3 mm
04:30 AM 78.3°F25.7°C 74.1°F23.4°C 87% Calm Calm -- 29.89 in1012.2 mb - 0.00 in0.0 mm 0.01 in0.3 mm
04:20 AM 78.5°F25.8°C 74.0°F23.3°C 86% Calm Calm -- 29.89 in1012.2 mb - 0.00 in0.0 mm 0.01 in0.3 mm
04:10 AM 78.8°F26.0°C 73.9°F23.3°C 85% Calm Calm -- 29.89 in1012.2 mb - 0.00 in0.0 mm 0.01 in0.3 mm
04:00 AM 79.3°F26.3°C 74.4°F23.6°C 85% Calm Calm -- 29.89 in1012.2 mb - 0.00 in0.0 mm 0.01 in0.3 mm
03:50 AM 80.3°F26.8°C 75.0°F23.9°C 84% Calm Calm -- 29.89 in1012.2 mb - 0.00 in0.0 mm 0.01 in0.3 mm
03:40 AM 81.6°F27.6°C 76.3°F24.6°C 84% 2.3 mph NE3.7 kmh NE 3.5 mph5.6 kmh 29.89 in1012.2 mb - 0.01 in0.3 mm 0.01 in0.3 mm
03:30 AM 81.7°F27.6°C 75.7°F24.3°C 82% 3.5 mph E5.6 kmh E 3.5 mph5.6 kmh 29.89 in1012.2 mb - 0.00 in0.0 mm 0.00 in0.0 mm
03:20 AM 81.6°F27.6°C 75.6°F24.2°C 82% 2.3 mph E3.7 kmh E 3.5 mph5.6 kmh 29.90 in1012.5 mb - 0.00 in0.0 mm 0.00 in0.0 mm
03:10 AM 81.7°F27.6°C 75.7°F24.3°C 82% 3.5 mph SE5.6 kmh SE 5.8 mph9.3 kmh 29.90 in1012.5 mb - 0.00 in0.0 mm 0.00 in0.0 mm
03:00 AM 81.7°F27.6°C 75.7°F24.3°C 82% 2.3 mph ESE3.7 kmh ESE 3.5 mph5.6 kmh 29.90 in1012.5 mb - 0.00 in0.0 mm 0.00 in0.0 mm
02:50 AM 81.8°F27.7°C 75.4°F24.1°C 81% 3.5 mph ESE5.6 kmh ESE 5.8 mph9.3 kmh 29.90 in1012.5 mb - 0.00 in0.0 mm 0.00 in0.0 mm
02:40 AM 81.9°F27.7°C 75.5°F24.2°C 81% 2.3 mph ESE3.7 kmh ESE 4.6 mph7.4 kmh 29.90 in1012.5 mb - 0.00 in0.0 mm 0.00 in0.0 mm
02:30 AM 82.0°F27.8°C 76.0°F24.4°C 82% 4.6 mph ESE7.4 kmh ESE 5.8 mph9.3 kmh 29.91 in1012.9 mb - 0.00 in0.0 mm 0.00 in0.0 mm
02:20 AM 82.0°F27.8°C 76.0°F24.4°C 82% 1.2 mph SE1.9 kmh SE 3.5 mph5.6 kmh 29.91 in1012.9 mb - 0.00 in0.0 mm 0.00 in0.0 mm
02:10 AM 82.0°F27.8°C 76.0°F24.4°C 82% 4.6 mph E7.4 kmh E 4.6 mph7.4 kmh 29.91 in1012.9 mb - 0.00 in0.0 mm 0.00 in0.0 mm
02:00 AM 82.0°F27.8°C 76.0°F24.4°C 82% 3.5 mph ESE5.6 kmh ESE 4.6 mph7.4 kmh 29.91 in1012.9 mb - 0.00 in0.0 mm 0.00 in0.0 mm
01:50 AM 82.0°F27.8°C 75.5°F24.2°C 81% 3.5 mph ESE5.6 kmh ESE 4.6 mph7.4 kmh 29.91 in1012.9 mb - 0.00 in0.0 mm 0.00 in0.0 mm
01:40 AM 82.0°F27.8°C 76.0°F24.4°C 82% 3.5 mph ESE5.6 kmh ESE 3.5 mph5.6 kmh 29.91 in1012.9 mb - 0.00 in0.0 mm 0.00 in0.0 mm
01:30 AM 82.0°F27.8°C 76.0°F24.4°C 82% 3.5 mph E5.6 kmh E 4.6 mph7.4 kmh 29.92 in1013.2 mb - 0.00 in0.0 mm 0.00 in0.0 mm
01:20 AM 82.0°F27.8°C 76.0°F24.4°C 82% 4.6 mph E7.4 kmh E 6.9 mph11.1 kmh 29.91 in1012.9 mb - 0.00 in0.0 mm 0.00 in0.0 mm
01:10 AM 81.9°F27.7°C 75.5°F24.2°C 81% 2.3 mph E3.7 kmh E 3.5 mph5.6 kmh 29.92 in1013.2 mb - 0.00 in0.0 mm 0.00 in0.0 mm
01:00 AM 81.8°F27.7°C 75.4°F24.1°C 81% 3.5 mph ESE5.6 kmh ESE 4.6 mph7.4 kmh 29.92 in1013.2 mb - 0.00 in0.0 mm 0.00 in0.0 mm
12:50 AM 81.7°F27.6°C 75.7°F24.3°C 82% 3.5 mph ESE5.6 kmh ESE 4.6 mph7.4 kmh 29.92 in1013.2 mb - 0.00 in0.0 mm 0.00 in0.0 mm
12:40 AM 81.6°F27.6°C 75.6°F24.2°C 82% 4.6 mph E7.4 kmh E 4.6 mph7.4 kmh 29.92 in1013.2 mb - 0.00 in0.0 mm 0.00 in0.0 mm
12:30 AM 81.6°F27.6°C 75.9°F24.4°C 83% 4.6 mph E7.4 kmh E 5.8 mph9.3 kmh 29.93 in1013.5 mb - 0.00 in0.0 mm 0.00 in0.0 mm
12:20 AM 81.4°F27.4°C 75.7°F24.3°C 83% 4.6 mph SE7.4 kmh SE 4.6 mph7.4 kmh 29.93 in1013.5 mb - 0.00 in0.0 mm 0.00 in0.0 mm
12:10 AM 81.1°F27.3°C 75.1°F23.9°C 82% 3.5 mph E5.6 kmh E 5.8 mph9.3 kmh 29.93 in1013.5 mb - 0.00 in0.0 mm 0.00 in0.0 mm
12:00 AM 80.8°F27.1°C 74.4°F23.6°C 81% Calm Calm 5.8 mph9.3 kmh 29.93 in1013.5 mb - 0.00 in0.0 mm 0.00 in0.0 mm